CheckWX is a tool to help pilots better visualize weather data.  It is not intended as a substitute for an official pre-flight weather briefing.

22:08:26 UTC

TXKF TAF
L F Wade International Airport
Hamilton, Bermuda
TAF TXKF 191736Z 1918/2018 33012KT 9999 FEW040 BKN300 BECMG 2000/2003 02006KT

Oct-19@
18:00 UTC

Oct-19 @ 18:00 UTC

Oct-20@
00:00 UTC

Oct-20 @ 00:00 UTC

TAF TXKF 191736Z 1918/2018 33012KT 9999 FEW040 BKN300
Wind
  • 330° at 12 KTS
Cloud Levels
  • Few at 4,000' AGL
  • Broken at 30,000' AGL

Oct-20@
00:00 UTC

Oct-20 @ 00:00 UTC

Oct-20@
18:00 UTC

Oct-20 @ 18:00 UTC

BECMG 2000/2003 02006KT

Becoming

Becoming Conditions expected by Sun, Oct 20, 2019 @ 03:00 UTC

Wind
  • 020° at 6 KTS
Cloud Levels
  • Few at 4,000' AGL
  • Broken at 30,000' AGL